createdAt,value
2022-11-16T00:01:17.755Z,13.60
2022-11-16T00:03:44.903Z,14.45
2022-11-16T00:06:12.955Z,12.37
2022-11-16T00:08:42.106Z,13.73
2022-11-16T00:11:11.547Z,14.68
2022-11-16T00:13:39.506Z,13.48
2022-11-16T00:16:07.526Z,13.27
2022-11-16T00:18:34.587Z,12.97
2022-11-16T00:21:03.865Z,13.57
2022-11-16T00:23:30.214Z,13.68
2022-11-16T00:26:02.527Z,12.57
2022-11-16T00:28:29.140Z,15.40
2022-11-16T00:31:00.578Z,13.80
2022-11-16T00:33:27.305Z,15.05
2022-11-16T00:35:53.730Z,15.93
2022-11-16T00:38:20.470Z,13.80
2022-11-16T00:40:46.923Z,13.30
2022-11-16T00:43:13.283Z,16.13
2022-11-16T00:45:40.549Z,14.45
2022-11-16T00:48:07.051Z,14.70
2022-11-16T00:50:33.439Z,15.13
2022-11-16T00:53:00.227Z,13.13
2022-11-16T00:55:26.582Z,14.30
2022-11-16T00:57:52.962Z,14.05
2022-11-16T01:00:19.443Z,13.13
2022-11-16T01:02:45.802Z,13.40
2022-11-16T01:05:12.351Z,14.50
2022-11-16T01:07:40.091Z,13.43
2022-11-16T01:10:10.779Z,11.75
2022-11-16T01:12:37.510Z,13.00
2022-11-16T01:15:06.874Z,12.10
2022-11-16T01:17:33.227Z,12.68
2022-11-16T01:19:59.598Z,13.17
2022-11-16T01:22:25.943Z,13.13
2022-11-16T01:24:52.380Z,13.38
2022-11-16T01:27:18.740Z,11.05
2022-11-16T01:29:45.486Z,12.90
2022-11-16T01:32:11.893Z,11.30
2022-11-16T01:34:38.260Z,11.95
2022-11-16T01:37:04.622Z,11.07
2022-11-16T01:39:30.975Z,11.43
2022-11-16T01:41:57.300Z,10.48
2022-11-16T01:44:32.825Z,12.23
2022-11-16T01:47:00.638Z,12.77
2022-11-16T01:49:30.774Z,10.68
2022-11-16T01:52:01.721Z,9.73
2022-11-16T01:54:30.886Z,10.77
2022-11-16T01:57:02.706Z,10.90
2022-11-16T01:59:29.644Z,11.10
2022-11-16T02:01:56.856Z,9.85
2022-11-16T02:04:23.234Z,10.88
2022-11-16T02:07:08.008Z,10.57
2022-11-16T02:10:08.622Z,11.37
2022-11-16T02:12:40.793Z,11.40
2022-11-16T02:15:45.566Z,10.25
2022-11-16T02:18:36.731Z,11.93
2022-11-16T02:21:28.682Z,11.82
2022-11-16T02:24:24.146Z,11.60
2022-11-16T02:27:12.464Z,12.40
2022-11-16T02:29:47.022Z,13.32
2022-11-16T02:32:19.219Z,12.88
2022-11-16T02:34:52.138Z,12.55
2022-11-16T02:37:22.403Z,15.10
2022-11-16T02:39:58.937Z,12.88
2022-11-16T02:42:33.083Z,13.70
2022-11-16T02:45:02.155Z,15.48
2022-11-16T02:47:33.277Z,12.48
2022-11-16T02:50:05.041Z,11.97
2022-11-16T02:52:31.417Z,12.15
2022-11-16T02:54:57.907Z,14.35
2022-11-16T02:57:40.415Z,12.65
2022-11-16T03:00:09.067Z,13.20
2022-11-16T03:02:59.455Z,15.33
2022-11-16T03:05:35.455Z,13.40
2022-11-16T03:08:21.974Z,12.43
2022-11-16T03:11:14.334Z,13.07
2022-11-16T03:13:41.919Z,12.00
2022-11-16T03:16:16.528Z,12.77
2022-11-16T03:18:47.188Z,13.23
2022-11-16T03:21:30.478Z,13.25
2022-11-16T03:23:57.603Z,13.40
2022-11-16T03:26:29.809Z,14.07
2022-11-16T03:29:33.546Z,14.07
2022-11-16T03:32:11.189Z,13.75
2022-11-16T03:34:41.557Z,15.73
2022-11-16T03:37:09.579Z,15.40
2022-11-16T03:39:39.108Z,14.75
2022-11-16T03:42:14.020Z,14.53
2022-11-16T03:44:42.151Z,15.50
2022-11-16T03:47:08.514Z,15.43
2022-11-16T03:49:35.064Z,15.23
2022-11-16T03:52:01.462Z,13.30
2022-11-16T03:54:27.860Z,15.90
2022-11-16T03:56:54.381Z,14.10
2022-11-16T03:59:20.761Z,15.40
2022-11-16T04:01:47.136Z,16.45
2022-11-16T04:04:33.504Z,15.52
2022-11-16T04:07:18.380Z,18.53
2022-11-16T04:10:03.540Z,18.92
2022-11-16T04:12:48.703Z,18.85
2022-11-16T04:15:33.549Z,16.48
2022-11-16T04:18:18.406Z,19.08
2022-11-16T04:21:04.330Z,18.17
2022-11-16T04:23:49.501Z,18.25
2022-11-16T04:26:16.139Z,19.17
2022-11-16T04:28:42.962Z,21.25
2022-11-16T04:31:28.007Z,19.95
2022-11-16T04:34:13.307Z,20.13
2022-11-16T04:36:58.091Z,22.25
2022-11-16T04:39:24.439Z,22.00
2022-11-16T04:42:09.256Z,21.65
2022-11-16T04:44:55.125Z,18.40
2022-11-16T04:47:21.515Z,21.77
2022-11-16T04:49:47.859Z,22.30
2022-11-16T04:52:14.215Z,23.70
2022-11-16T04:54:40.590Z,23.00
2022-11-16T04:57:07.123Z,24.80
2022-11-16T04:59:33.460Z,22.73
2022-11-16T05:02:08.807Z,24.20
2022-11-16T05:04:40.951Z,23.15
2022-11-16T05:07:11.191Z,23.33
2022-11-16T05:09:42.866Z,22.58
2022-11-16T05:12:18.502Z,21.97
2022-11-16T05:14:45.455Z,22.20
2022-11-16T05:17:12.657Z,23.23
2022-11-16T05:19:58.054Z,24.00
2022-11-16T05:22:25.063Z,23.40
2022-11-16T05:24:52.389Z,25.57
2022-11-16T05:27:21.180Z,22.08
2022-11-16T05:29:49.644Z,24.38
2022-11-16T05:32:17.366Z,25.85
2022-11-16T05:34:43.815Z,26.13
2022-11-16T05:37:10.311Z,25.17
2022-11-16T05:39:36.935Z,23.13
2022-11-16T05:42:03.493Z,24.88
2022-11-16T05:44:29.879Z,21.58
2022-11-16T05:46:56.427Z,28.63
2022-11-16T05:49:23.423Z,23.07
2022-11-16T05:51:50.476Z,23.45
2022-11-16T05:54:20.674Z,23.23
2022-11-16T05:56:49.420Z,25.05
2022-11-16T05:59:17.604Z,24.65
2022-11-16T06:01:44.399Z,24.83
2022-11-16T06:04:11.588Z,23.95
2022-11-16T06:06:38.450Z,25.52
2022-11-16T06:09:05.529Z,25.13
2022-11-16T06:11:35.750Z,25.70
2022-11-16T06:14:03.021Z,24.40
2022-11-16T06:16:29.408Z,24.20
2022-11-16T06:18:55.844Z,26.52
2022-11-16T06:21:22.259Z,27.75
2022-11-16T06:23:49.120Z,24.40
2022-11-16T06:26:15.602Z,26.10
2022-11-16T06:28:42.093Z,25.85
2022-11-16T06:31:08.423Z,27.60
2022-11-16T06:33:34.802Z,26.90
2022-11-16T06:36:01.273Z,28.48
2022-11-16T06:38:27.738Z,28.13
2022-11-16T06:40:56.775Z,27.70
2022-11-16T06:43:24.510Z,26.50
2022-11-16T06:45:52.964Z,26.20
2022-11-16T06:48:19.843Z,29.02
2022-11-16T06:50:51.888Z,32.47
2022-11-16T06:53:19.110Z,28.30
2022-11-16T06:55:47.615Z,30.17
2022-11-16T06:58:14.474Z,29.67
2022-11-16T07:00:40.993Z,29.40
2022-11-16T07:03:07.413Z,29.43
2022-11-16T07:05:33.794Z,31.75
2022-11-16T07:08:00.331Z,31.58
2022-11-16T07:10:27.159Z,33.63
2022-11-16T07:12:53.576Z,31.92
2022-11-16T07:15:20.062Z,34.60
2022-11-16T07:17:47.097Z,35.72
2022-11-16T07:20:14.163Z,39.13
2022-11-16T07:22:40.816Z,35.33
2022-11-16T07:25:07.961Z,40.88
2022-11-16T07:27:34.356Z,36.07
2022-11-16T07:30:02.057Z,36.22
2022-11-16T07:32:30.758Z,34.65
2022-11-16T07:34:59.254Z,32.28
2022-11-16T07:37:26.300Z,31.77
2022-11-16T07:39:52.731Z,30.73
2022-11-16T07:42:19.121Z,32.75
2022-11-16T07:44:45.528Z,27.90
2022-11-16T07:47:11.892Z,28.40
2022-11-16T07:49:38.343Z,29.63
2022-11-16T07:52:05.061Z,30.87
2022-11-16T07:54:31.547Z,29.73
2022-11-16T07:56:57.913Z,29.70
2022-11-16T07:59:24.271Z,25.55
2022-11-16T08:01:50.742Z,26.33
2022-11-16T08:04:17.534Z,24.00
2022-11-16T08:06:44.402Z,22.25
2022-11-16T08:09:10.762Z,22.52
2022-11-16T08:11:37.948Z,21.27
2022-11-16T08:14:04.366Z,24.88
2022-11-16T08:16:33.153Z,23.73
2022-11-16T08:19:00.810Z,24.15
2022-11-16T08:21:27.758Z,26.92
2022-11-16T08:23:58.337Z,31.55
2022-11-16T08:26:25.360Z,31.38
2022-11-16T08:28:53.811Z,30.43
2022-11-16T08:31:24.071Z,31.77
2022-11-16T08:33:51.632Z,31.40
2022-11-16T08:36:18.904Z,32.15
2022-11-16T08:38:47.071Z,31.52
2022-11-16T08:41:14.161Z,34.50
2022-11-16T08:43:40.859Z,34.58
2022-11-16T08:46:08.449Z,34.25
2022-11-16T08:48:36.026Z,31.88
2022-11-16T08:51:20.528Z,36.00
2022-11-16T08:53:48.915Z,31.40
2022-11-16T08:56:16.800Z,30.33
2022-11-16T08:58:47.270Z,30.73
2022-11-16T09:01:16.560Z,30.52
2022-11-16T09:03:44.133Z,31.98
2022-11-16T09:06:11.418Z,33.93
2022-11-16T09:08:39.780Z,30.77
2022-11-16T09:11:08.290Z,31.55
2022-11-16T09:13:35.172Z,29.60
2022-11-16T09:16:02.158Z,33.38
2022-11-16T09:18:30.938Z,30.03
2022-11-16T09:20:57.711Z,30.48
2022-11-16T09:23:25.705Z,32.08
2022-11-16T09:25:52.858Z,33.15
2022-11-16T09:28:19.706Z,29.58
2022-11-16T09:30:48.573Z,30.57
2022-11-16T09:33:14.975Z,31.92
2022-11-16T09:35:41.741Z,29.35
2022-11-16T09:38:09.955Z,32.40
2022-11-16T09:40:39.078Z,30.00
2022-11-16T09:43:45.849Z,29.70
2022-11-16T09:46:34.611Z,28.60
2022-11-16T09:49:04.954Z,31.38
2022-11-16T09:51:38.755Z,27.33
2022-11-16T09:54:08.508Z,28.83
2022-11-16T09:56:39.861Z,32.47
2022-11-16T09:59:20.994Z,28.55
2022-11-16T10:02:02.975Z,28.85
2022-11-16T10:04:29.318Z,26.17
2022-11-16T10:07:15.997Z,27.70
2022-11-16T10:09:44.559Z,30.67
2022-11-16T10:12:45.987Z,27.23
2022-11-16T10:15:30.845Z,27.58
2022-11-16T10:18:34.804Z,29.08
2022-11-16T10:21:28.187Z,27.40
2022-11-16T10:24:03.640Z,28.80
2022-11-16T10:26:40.074Z,30.65
2022-11-16T10:29:24.620Z,30.08
2022-11-16T10:32:03.240Z,29.67
2022-11-16T10:34:53.971Z,29.40
2022-11-16T10:37:21.587Z,28.70
2022-11-16T10:39:50.717Z,30.45
2022-11-16T10:42:23.022Z,30.25
2022-11-16T10:44:59.775Z,29.63
2022-11-16T10:47:51.984Z,32.35
2022-11-16T10:50:33.519Z,29.33
2022-11-16T10:53:00.661Z,28.23
2022-11-16T10:55:28.656Z,24.65
2022-11-16T10:58:05.876Z,21.58
2022-11-16T11:00:38.495Z,18.27
2022-11-16T11:03:05.267Z,19.93
2022-11-16T11:05:32.152Z,18.13
2022-11-16T11:08:06.003Z,16.63
2022-11-16T11:10:36.023Z,16.50
2022-11-16T11:13:11.293Z,16.58
2022-11-16T11:15:39.722Z,17.63
2022-11-16T11:18:24.064Z,19.05
2022-11-16T11:21:06.142Z,19.27
2022-11-16T11:23:45.116Z,19.75
2022-11-16T11:26:34.676Z,21.35
2022-11-16T11:29:34.474Z,19.57
2022-11-16T11:32:05.703Z,19.65
2022-11-16T11:34:41.510Z,20.08
2022-11-16T11:37:16.958Z,20.58
2022-11-16T11:39:43.403Z,16.45
2022-11-16T11:42:12.814Z,16.97
2022-11-16T11:44:57.048Z,13.50
2022-11-16T11:50:21.618Z,12.80
2022-11-16T11:53:03.310Z,15.82
2022-11-16T11:55:29.735Z,11.90
2022-11-16T11:57:58.106Z,15.93
2022-11-16T12:00:26.062Z,12.63
2022-11-16T12:03:45.382Z,13.63
2022-11-16T12:06:37.708Z,10.52
2022-11-16T12:09:21.957Z,13.63
2022-11-16T12:12:15.023Z,10.98
2022-11-16T12:15:19.441Z,11.32
2022-11-16T12:18:19.906Z,10.77
2022-11-16T12:21:09.003Z,12.07
2022-11-16T12:23:50.305Z,9.53
2022-11-16T12:26:37.147Z,9.45
2022-11-16T12:29:21.561Z,9.43
2022-11-16T12:32:14.666Z,10.40
2022-11-16T12:34:46.737Z,8.13
2022-11-16T12:37:31.699Z,11.70
2022-11-16T12:40:24.461Z,8.82
2022-11-16T12:43:38.750Z,7.75
2022-11-16T12:46:28.547Z,9.55
2022-11-16T12:49:24.177Z,8.05
2022-11-16T12:52:00.570Z,7.63
2022-11-16T12:55:03.928Z,8.88
2022-11-16T12:57:46.453Z,10.23
2022-11-16T13:00:18.577Z,10.48
2022-11-16T13:03:03.614Z,9.25
2022-11-16T13:05:42.044Z,7.77
2022-11-16T13:08:22.942Z,8.85
2022-11-16T13:10:52.774Z,6.97
2022-11-16T13:13:37.411Z,11.18
2022-11-16T13:16:06.582Z,9.70
2022-11-16T13:18:37.522Z,6.57
2022-11-16T13:21:17.485Z,9.38
2022-11-16T13:23:48.778Z,7.30
2022-11-16T13:26:29.274Z,9.35
2022-11-16T13:29:23.339Z,8.70
2022-11-16T13:31:58.457Z,8.43
2022-11-16T13:34:27.387Z,9.38
2022-11-16T13:36:53.767Z,8.27
2022-11-16T13:39:23.027Z,7.85
2022-11-16T13:42:07.531Z,11.23
2022-11-16T13:44:34.703Z,8.13
2022-11-16T13:47:04.734Z,9.02
2022-11-16T13:49:40.847Z,8.50
2022-11-16T13:52:35.674Z,10.05
2022-11-16T13:54:59.110Z,9.05
2022-11-16T13:57:33.600Z,8.43
2022-11-16T14:00:03.299Z,9.05
2022-11-16T14:02:29.634Z,6.93
2022-11-16T14:04:59.955Z,7.88
2022-11-16T14:07:31.257Z,9.52
2022-11-16T14:10:01.147Z,10.80
2022-11-16T14:12:56.129Z,9.63
2022-11-16T14:15:34.222Z,8.15
2022-11-16T14:18:09.427Z,9.27
2022-11-16T14:20:45.223Z,7.78
2022-11-16T14:23:52.100Z,7.97
2022-11-16T14:26:53.724Z,7.53
2022-11-16T14:29:34.304Z,13.07
2022-11-16T14:32:03.513Z,11.52
2022-11-16T14:34:44.186Z,10.73
2022-11-16T14:37:33.675Z,10.23
2022-11-16T14:40:19.138Z,8.85
2022-11-16T14:45:39.741Z,9.18
2022-11-16T14:48:17.262Z,12.30
2022-11-16T14:51:00.369Z,8.40
2022-11-16T14:53:29.203Z,8.65
2022-11-16T14:56:10.867Z,11.05
2022-11-16T14:58:37.926Z,13.00
2022-11-16T15:01:14.075Z,9.13
2022-11-16T15:03:52.541Z,10.50
2022-11-16T15:06:20.142Z,8.80
2022-11-16T15:08:54.474Z,8.20
2022-11-16T15:11:48.030Z,9.20
2022-11-16T15:14:18.842Z,7.20
2022-11-16T15:16:50.865Z,8.53
2022-11-16T15:19:17.348Z,9.35
2022-11-16T15:22:01.282Z,8.95
2022-11-16T15:24:31.702Z,11.40
2022-11-16T15:27:11.569Z,10.52
2022-11-16T15:29:38.129Z,9.30
2022-11-16T15:32:06.874Z,11.02
2022-11-16T15:34:33.414Z,7.70
2022-11-16T15:36:59.786Z,9.98
2022-11-16T15:39:33.475Z,10.43
2022-11-16T15:42:03.803Z,8.10
2022-11-16T15:44:31.823Z,7.72
2022-11-16T15:46:58.762Z,12.13
2022-11-16T15:49:31.390Z,9.23
2022-11-16T15:51:59.402Z,9.40
2022-11-16T15:54:27.917Z,8.30
2022-11-16T15:57:07.778Z,9.13
2022-11-16T15:59:36.963Z,10.98
2022-11-16T16:02:04.128Z,13.38
2022-11-16T16:04:30.973Z,7.40
2022-11-16T16:06:59.647Z,12.00
2022-11-16T16:09:27.645Z,12.45
2022-11-16T16:11:56.800Z,11.13
2022-11-16T16:14:48.514Z,10.20
2022-11-16T16:17:29.351Z,9.88
2022-11-16T16:19:59.493Z,12.67
2022-11-16T16:22:31.931Z,10.95
2022-11-16T16:24:58.726Z,13.32
2022-11-16T16:27:27.451Z,12.98
2022-11-16T16:29:56.023Z,17.77
2022-11-16T16:32:30.901Z,16.03
2022-11-16T16:34:59.306Z,16.63
2022-11-16T16:37:27.943Z,18.33
2022-11-16T16:39:54.359Z,19.70
2022-11-16T16:42:20.946Z,22.63
2022-11-16T16:44:48.412Z,21.23
2022-11-16T16:47:16.433Z,19.45
2022-11-16T16:49:43.262Z,22.50
2022-11-16T16:52:12.097Z,23.98
2022-11-16T16:54:38.634Z,24.85
2022-11-16T16:57:04.991Z,24.40
2022-11-16T16:59:31.522Z,22.63
2022-11-16T17:01:58.884Z,25.00
2022-11-16T17:04:25.628Z,25.83
2022-11-16T17:06:53.159Z,30.70
2022-11-16T17:09:20.268Z,32.23
2022-11-16T17:11:47.599Z,32.63
2022-11-16T17:14:14.192Z,33.30
2022-11-16T17:16:40.862Z,40.83
2022-11-16T17:19:07.230Z,46.22
2022-11-16T17:21:33.580Z,49.90
2022-11-16T17:23:59.971Z,53.05
2022-11-16T17:26:29.235Z,57.08
2022-11-16T17:28:56.980Z,53.67
2022-11-16T17:31:24.455Z,54.55
2022-11-16T17:33:51.234Z,58.97
2022-11-16T17:36:17.942Z,58.83
2022-11-16T17:38:44.943Z,53.53
2022-11-16T17:41:14.182Z,60.03
2022-11-16T17:43:42.203Z,54.47
2022-11-16T17:46:11.222Z,51.70
2022-11-16T17:48:39.158Z,59.63
2022-11-16T17:51:06.237Z,53.85
2022-11-16T17:53:34.967Z,51.80
2022-11-16T17:56:02.911Z,53.50
2022-11-16T17:58:31.538Z,50.07
2022-11-16T18:00:58.276Z,52.08
2022-11-16T18:03:25.143Z,49.80
2022-11-16T18:05:51.914Z,44.60
2022-11-16T18:08:18.461Z,48.78
2022-11-16T18:10:44.899Z,48.40
2022-11-16T18:13:11.301Z,50.03
2022-11-16T18:15:42.313Z,51.10
2022-11-16T18:18:09.111Z,49.38
2022-11-16T18:20:37.071Z,50.00
2022-11-16T18:23:04.313Z,46.40
2022-11-16T18:25:33.219Z,53.33
2022-11-16T18:27:59.596Z,52.80
2022-11-16T18:30:25.964Z,57.38
2022-11-16T18:32:52.409Z,50.42
2022-11-16T18:35:18.796Z,54.97
2022-11-16T18:37:45.251Z,55.22
2022-11-16T18:40:12.130Z,51.55
2022-11-16T18:42:38.988Z,53.72
2022-11-16T18:45:06.042Z,52.40
2022-11-16T18:47:32.455Z,49.40
2022-11-16T18:49:58.889Z,53.88
2022-11-16T18:52:25.370Z,57.78
2022-11-16T18:54:51.788Z,52.90
2022-11-16T18:57:18.125Z,50.85
2022-11-16T18:59:44.502Z,54.67
2022-11-16T19:02:12.520Z,59.13
2022-11-16T19:04:40.243Z,60.28
2022-11-16T19:07:07.494Z,60.55
2022-11-16T19:09:33.898Z,58.60
2022-11-16T19:12:00.278Z,60.20
2022-11-16T19:14:26.719Z,62.05
2022-11-16T19:16:57.082Z,61.00
2022-11-16T19:19:25.227Z,61.75
2022-11-16T19:21:52.020Z,54.17
2022-11-16T19:24:18.438Z,58.93
2022-11-16T19:26:44.864Z,56.70
2022-11-16T19:29:11.233Z,51.28
2022-11-16T19:31:37.610Z,49.47
2022-11-16T19:34:06.740Z,50.70
2022-11-16T19:36:35.258Z,52.80
2022-11-16T19:39:02.305Z,48.13
2022-11-16T19:41:28.767Z,50.30
2022-11-16T19:43:59.823Z,48.08
2022-11-16T19:46:28.267Z,52.40
2022-11-16T19:48:55.301Z,50.97
2022-11-16T19:51:31.959Z,48.47
2022-11-16T19:54:00.133Z,53.25
2022-11-16T19:56:26.788Z,51.60
2022-11-16T19:58:53.739Z,54.38
2022-11-16T20:01:23.579Z,54.83
2022-11-16T20:03:50.063Z,53.92
2022-11-16T20:06:19.108Z,53.80
2022-11-16T20:08:53.953Z,51.78
2022-11-16T20:11:23.186Z,52.63
2022-11-16T20:13:51.546Z,47.70
2022-11-16T20:16:19.928Z,53.88
2022-11-16T20:18:46.815Z,52.22
2022-11-16T20:21:21.985Z,48.75
2022-11-16T20:23:49.335Z,55.72
2022-11-16T20:26:15.804Z,56.37
2022-11-16T20:28:43.576Z,60.72
2022-11-16T20:31:12.696Z,52.35
2022-11-16T20:33:39.400Z,47.58
2022-11-16T20:36:08.682Z,48.58
2022-11-16T20:38:36.410Z,41.27
2022-11-16T20:41:23.491Z,50.75
2022-11-16T20:43:51.922Z,48.38
2022-11-16T20:46:20.728Z,51.38
2022-11-16T20:48:48.908Z,48.65
2022-11-16T20:51:17.910Z,51.00
2022-11-16T20:53:46.030Z,49.45
2022-11-16T20:56:12.958Z,49.28
2022-11-16T20:58:39.582Z,47.05
2022-11-16T21:01:31.699Z,49.97
2022-11-16T21:04:02.009Z,48.13
2022-11-16T21:06:29.087Z,46.47
2022-11-16T21:08:56.169Z,55.15
2022-11-16T21:11:29.014Z,51.10
2022-11-16T21:14:14.598Z,49.75
2022-11-16T21:16:41.050Z,50.97
2022-11-16T21:19:07.540Z,51.58
2022-11-16T21:21:34.201Z,50.83
2022-11-16T21:24:00.876Z,53.55
2022-11-16T21:26:29.380Z,51.25
2022-11-16T21:28:57.036Z,52.40
2022-11-16T21:31:26.622Z,53.55
2022-11-16T21:33:54.122Z,51.20
2022-11-16T21:36:22.865Z,49.97
2022-11-16T21:38:50.068Z,51.53
2022-11-16T21:41:18.317Z,49.57
2022-11-16T21:43:44.841Z,48.65
2022-11-16T21:46:14.202Z,50.38
2022-11-16T21:48:41.150Z,51.47
2022-11-16T21:51:10.083Z,51.70
2022-11-16T21:53:37.472Z,47.07
2022-11-16T21:56:05.591Z,50.22
2022-11-16T21:58:31.965Z,48.95
2022-11-16T22:01:00.441Z,41.75
2022-11-16T22:03:29.258Z,43.50
2022-11-16T22:06:16.485Z,44.73
2022-11-16T22:08:43.687Z,46.35
2022-11-16T22:11:10.725Z,43.97
2022-11-16T22:13:38.112Z,47.35
2022-11-16T22:16:06.672Z,48.13
2022-11-16T22:18:33.587Z,42.70
2022-11-16T22:21:01.065Z,39.33
2022-11-16T22:23:28.302Z,47.10
2022-11-16T22:25:59.772Z,46.20
2022-11-16T22:28:26.411Z,36.53
2022-11-16T22:31:00.294Z,36.30
2022-11-16T22:33:26.869Z,39.13
2022-11-16T22:35:53.323Z,39.53
2022-11-16T22:38:19.689Z,40.08
2022-11-16T22:40:53.602Z,36.38
2022-11-16T22:43:21.235Z,38.40
2022-11-16T22:45:47.651Z,35.83
2022-11-16T22:48:14.242Z,37.60
2022-11-16T22:50:40.768Z,39.20
2022-11-16T22:53:07.202Z,36.03
2022-11-16T22:55:38.140Z,37.63
2022-11-16T22:58:05.448Z,35.90
2022-11-16T23:00:37.482Z,33.38
2022-11-16T23:03:07.222Z,34.90
2022-11-16T23:05:33.667Z,33.28
2022-11-16T23:08:00.059Z,33.83
2022-11-16T23:10:26.470Z,31.05
2022-11-16T23:13:11.789Z,29.67
2022-11-16T23:15:49.968Z,31.05
2022-11-16T23:18:17.309Z,33.22
2022-11-16T23:21:02.287Z,31.03
2022-11-16T23:23:47.071Z,31.00
2022-11-16T23:26:40.976Z,25.60
2022-11-16T23:29:11.323Z,29.38
2022-11-16T23:31:38.274Z,29.42
2022-11-16T23:34:05.235Z,24.53
2022-11-16T23:36:31.820Z,31.13
2022-11-16T23:38:58.256Z,26.73
2022-11-16T23:41:43.231Z,27.98
2022-11-16T23:44:09.602Z,24.83
2022-11-16T23:46:35.975Z,27.67
2022-11-16T23:49:02.523Z,27.30
2022-11-16T23:51:29.014Z,30.33
2022-11-16T23:53:55.825Z,28.33
2022-11-16T23:56:22.323Z,28.10
2022-11-16T23:58:49.053Z,25.37
